Time Latitude Longitude Accuracy (66% radius in meters) Altitude (meters) Speed (km/hour) Bearing (degrees) Battery (%) GPS flag
09:15:30 55.944033 38.068137 2 182.10000610352 0 0 71 1 delete
09:15:21 55.944033 38.068137 2 182.10000610352 0 0 71 1 delete
09:15:09 55.944033 38.068137 2.5 182.10000610352 0 0 71 1 delete
09:15:00 55.944033 38.068137 2 182.10000610352 0 0 71 1 delete
09:14:48 55.944033 38.068137 3 182.10000610352 0 0 71 1 delete
09:14:39 55.944033 38.068137 2.5 182.10000610352 0 0 71 1 delete
09:14:30 55.944033 38.068137 1.5 182.10000610352 0.3299999833107 124.43664550781 71 1 delete
09:14:27 55.944031 38.068093 2 184.10000610352 0.71999996900558 127.98522949219 71 1 delete
09:14:18 55.944032 38.068075 2 185.89999389648 0 0 71 1 delete
09:13:51 55.944019 38.068033 1.5 185.60000610352 1.4399999380112 65.401611328125 71 1 delete
09:13:30 55.943993 38.067916 1.5 184.19999694824 0.52999997138977 75.228881835938 71 1 delete
09:13:27 55.943982 38.067879 1.5 184.19999694824 1.1499999761581 56.3818359375 71 1 delete
09:13:24 55.943970 38.067816 1.5 184.5 1.5199999809265 78.008422851562 71 1 delete
09:13:21 55.943956 38.067738 1.5 184.60000610352 1.4900000095367 76.57470703125 71 1 delete
09:13:15 55.943928 38.067634 1.5 184 0.87000000476837 46.834716796875 71 1 delete
09:13:06 55.943925 38.067610 1.5 183.69999694824 0 0 71 1 delete
09:13:03 55.943925 38.067605 1.5 183.60000610352 0.31000000238419 62.29248046875 71 1 delete
09:12:54 55.943895 38.067546 1.5 184 3.2599999904633 50.701904296875 71 1 delete
09:12:51 55.943769 38.067365 2 185.30000305176 5.7699999809265 15.803833007812 71 1 delete
09:12:48 55.943576 38.067340 2 186.30000305176 4.6100001335144 11.793823242188 71 1 delete
09:12:45 55.943469 38.067167 2 186.60000610352 3.8299999237061 62.215576171875 71 1 delete
09:12:39 55.943396 38.066950 2 185.69999694824 0.93000000715256 94.581298828125 71 1 delete
09:12:36 55.943362 38.066808 2 185.10000610352 4.6399998664856 73.004150390625 71 1 delete
09:12:33 55.943293 38.066546 2.5 187.10000610352 4.5499997138977 87.42919921875 71 1 delete
09:12:30 55.943264 38.066345 2.5 186.69999694824 2.7799999713898 53.300170898438 71 1 delete
09:12:27 55.943179 38.066294 2.5 186 3.7599999904633 4.46044921875 71 1 delete
09:12:24 55.943088 38.066250 2.5 185.10000610352 2.8399999141693 35.48583984375 71 1 delete
09:12:21 55.943034 38.066216 2 184.19999694824 3.5499999523163 308.25439453125 71 1 delete
09:12:18 55.942952 38.066410 1.5 183.5 5.1099996566772 328.45825195312 71 1 delete
09:12:15 55.942834 38.066541 2 183.5 4.8499999046326 330.77087402344 71 1 delete
09:12:12 55.942709 38.066608 2 183.80000305176 5.1399998664856 352.43041992188 71 1 delete
09:12:09 55.942539 38.066696 2.5 186.5 4.0899996757507 330.26000976562 71 1 delete
09:12:06 55.942451 38.066633 2.5 186.10000610352 3.7300000190735 45.406494140625 71 1 delete
09:12:03 55.942366 38.066519 2 186 1.75 28.01513671875 71 1 delete
09:11:54 55.942315 38.066480 2 185.5 2.9900000095367 13.172607421875 71 1 delete
09:11:51 55.942226 38.066479 2 184.19999694824 4.25 355.98999023438 71 1 delete
09:11:48 55.942087 38.066474 1.5 184.10000610352 5.2199997901917 5.2239990234375 71 1 delete
09:11:45 55.941942 38.066428 1.5 184.89999389648 5.1700000762939 19.374389648438 71 1 delete
09:11:42 55.941788 38.066301 2 186.39999389648 4.9099998474121 15.034790039062 71 1 delete
09:11:39 55.941689 38.066194 1.5 186.19999694824 5.1500000953674 88.654174804688 71 1 delete
09:11:36 55.941734 38.065900 1.5 187.69999694824 6.0099997520447 105.76538085938 71 1 delete
09:11:33 55.941790 38.065603 1.5 187.69999694824 5.9400000572205 117.14172363281 71 1 delete
09:11:30 55.941881 38.065350 2 187.39999389648 6.2599997520447 132.91809082031 71 1 delete
09:11:27 55.941978 38.065131 2 187.60000610352 5.3899998664856 132.0556640625 71 1 delete
09:11:24 55.942014 38.064952 2 186.5 3.9399998188019 48.71337890625 71 1 delete
09:11:21 55.941864 38.064931 2 187.39999389648 4.6199998855591 0.87890625 71 1 delete
09:11:18 55.941726 38.064935 2 187.60000610352 4.4699997901917 32.4755859375 71 1 delete
09:11:15 55.941634 38.064762 2 188.39999389648 4.0999999046326 55.96435546875 71 1 delete
09:11:12 55.941575 38.064562 2 188.60000610352 4.1300001144409 56.42578125 71 1 delete
09:11:09 55.941541 38.064334 2 188.80000305176 4.6799998283386 83.556518554688 71 1 delete